createdAt,value
2019-01-20T00:00:58.557Z,33.67
2019-01-20T00:03:28.241Z,34.03
2019-01-20T00:05:57.865Z,32.80
2019-01-20T00:08:27.521Z,35.27
2019-01-20T00:10:57.172Z,34.27
2019-01-20T00:13:27.055Z,34.57
2019-01-20T00:15:56.754Z,35.33
2019-01-20T00:18:26.617Z,34.73
2019-01-20T00:20:56.290Z,35.30
2019-01-20T00:23:25.987Z,34.03
2019-01-20T00:25:55.706Z,35.20
2019-01-20T00:28:25.325Z,35.97
2019-01-20T00:30:54.961Z,34.87
2019-01-20T00:33:24.589Z,36.27
2019-01-20T00:35:54.230Z,35.43
2019-01-20T00:38:23.849Z,35.83
2019-01-20T00:40:53.562Z,35.67
2019-01-20T00:43:23.280Z,36.20
2019-01-20T00:45:53.257Z,35.93
2019-01-20T00:48:22.886Z,35.57
2019-01-20T00:50:52.539Z,35.37
2019-01-20T00:53:22.565Z,34.93
2019-01-20T00:55:52.197Z,36.57
2019-01-20T00:58:22.056Z,37.23
2019-01-20T01:00:51.767Z,36.40
2019-01-20T01:03:21.436Z,36.60
2019-01-20T01:05:51.066Z,36.77
2019-01-20T01:08:20.842Z,35.70
2019-01-20T01:10:50.549Z,35.93
2019-01-20T01:13:20.457Z,35.23
2019-01-20T01:15:50.488Z,37.53
2019-01-20T01:18:20.110Z,36.80
2019-01-20T01:20:49.736Z,35.27
2019-01-20T01:23:19.820Z,35.00
2019-01-20T01:25:49.778Z,33.30
2019-01-20T01:28:19.739Z,33.20
2019-01-20T01:30:49.449Z,32.90
2019-01-20T01:33:19.136Z,33.50
2019-01-20T01:35:48.923Z,32.27
2019-01-20T01:38:18.534Z,31.37
2019-01-20T01:40:48.559Z,33.40
2019-01-20T01:43:18.242Z,32.43
2019-01-20T01:45:47.864Z,31.37
2019-01-20T01:48:17.476Z,32.93
2019-01-20T01:50:47.100Z,34.23
2019-01-20T01:53:16.730Z,34.00
2019-01-20T01:55:46.401Z,33.47
2019-01-20T01:58:16.086Z,34.90
2019-01-20T02:00:45.709Z,30.83
2019-01-20T02:03:15.321Z,33.23
2019-01-20T02:05:44.949Z,33.27
2019-01-20T02:08:14.910Z,32.57
2019-01-20T02:10:44.533Z,31.83
2019-01-20T02:13:14.224Z,31.30
2019-01-20T02:15:43.861Z,32.37
2019-01-20T02:18:13.560Z,33.13
2019-01-20T02:20:43.376Z,35.77
2019-01-20T02:23:13.288Z,35.03
2019-01-20T02:25:42.901Z,31.40
2019-01-20T02:28:12.531Z,30.97
2019-01-20T02:30:42.290Z,30.67
2019-01-20T02:33:11.933Z,29.97
2019-01-20T02:35:41.599Z,31.83
2019-01-20T02:38:12.278Z,31.13
2019-01-20T02:40:41.896Z,31.80
2019-01-20T02:43:11.526Z,32.30
2019-01-20T02:45:41.141Z,31.67
2019-01-20T02:48:10.775Z,29.30
2019-01-20T02:50:40.388Z,27.77
2019-01-20T02:53:10.313Z,30.17
2019-01-20T02:55:39.943Z,28.93
2019-01-20T02:58:09.561Z,30.33
2019-01-20T03:00:39.252Z,29.53
2019-01-20T03:03:08.890Z,29.40
2019-01-20T03:05:38.595Z,28.90
2019-01-20T03:08:08.296Z,28.43
2019-01-20T03:10:38.213Z,29.20
2019-01-20T03:13:07.925Z,29.07
2019-01-20T03:15:37.826Z,30.90
2019-01-20T03:18:07.523Z,31.33
2019-01-20T03:20:37.194Z,35.80
2019-01-20T03:23:07.340Z,32.00
2019-01-20T03:25:37.201Z,31.07
2019-01-20T03:28:06.892Z,31.03
2019-01-20T03:30:37.894Z,28.47
2019-01-20T03:33:07.538Z,29.20
2019-01-20T03:35:37.144Z,27.57
2019-01-20T03:38:06.833Z,26.27
2019-01-20T03:40:36.476Z,26.23
2019-01-20T03:43:06.418Z,27.47
2019-01-20T03:45:36.106Z,26.73
2019-01-20T03:48:05.741Z,27.13
2019-01-20T03:50:35.363Z,28.50
2019-01-20T03:53:05.378Z,27.40
2019-01-20T03:55:35.006Z,27.90
2019-01-20T03:58:05.102Z,27.37
2019-01-20T04:00:35.428Z,28.90
2019-01-20T04:03:05.996Z,29.03
2019-01-20T04:05:35.682Z,28.33
2019-01-20T04:08:05.498Z,28.13
2019-01-20T04:10:35.494Z,27.27
2019-01-20T04:13:05.269Z,28.13
2019-01-20T04:15:35.129Z,26.60
2019-01-20T04:18:05.253Z,27.37
2019-01-20T04:20:34.960Z,26.47
2019-01-20T04:23:04.673Z,25.73
2019-01-20T04:25:34.860Z,27.33
2019-01-20T04:28:04.643Z,25.13
2019-01-20T04:30:34.817Z,26.50
2019-01-20T04:33:04.529Z,25.90
2019-01-20T04:35:34.240Z,26.07
2019-01-20T04:38:05.274Z,26.13
2019-01-20T04:40:35.141Z,25.43
2019-01-20T04:43:04.773Z,25.53
2019-01-20T04:45:34.472Z,26.13
2019-01-20T04:48:04.265Z,24.43
2019-01-20T04:50:34.854Z,27.63
2019-01-20T04:53:04.644Z,35.23
2019-01-20T04:55:34.261Z,32.37
2019-01-20T04:58:04.004Z,28.53
2019-01-20T05:00:33.625Z,28.30
2019-01-20T05:03:03.323Z,27.70
2019-01-20T05:05:33.264Z,27.57
2019-01-20T05:08:02.947Z,27.20
2019-01-20T05:10:32.560Z,27.27
2019-01-20T05:13:02.578Z,24.93
2019-01-20T05:15:32.279Z,23.97
2019-01-20T05:18:01.903Z,24.27
2019-01-20T05:20:31.524Z,24.53
2019-01-20T05:23:01.142Z,25.87
2019-01-20T05:25:30.761Z,25.70
2019-01-20T05:28:00.377Z,23.00
2019-01-20T05:30:30.349Z,25.20
2019-01-20T05:32:59.972Z,25.10
2019-01-20T05:35:29.865Z,25.03
2019-01-20T05:37:59.528Z,23.53
2019-01-20T05:40:29.395Z,22.83
2019-01-20T05:42:59.117Z,24.73
2019-01-20T05:45:28.748Z,23.73
2019-01-20T05:47:58.369Z,22.53
2019-01-20T05:50:28.331Z,22.30
2019-01-20T05:52:57.956Z,23.63
2019-01-20T05:55:27.599Z,24.23
2019-01-20T05:57:57.246Z,23.67
2019-01-20T06:00:29.454Z,24.10
2019-01-20T06:02:59.385Z,22.07
2019-01-20T06:05:29.090Z,22.90
2019-01-20T06:07:58.973Z,23.27
2019-01-20T06:10:28.605Z,22.90
2019-01-20T06:12:58.835Z,21.13
2019-01-20T06:15:28.774Z,22.33
2019-01-20T06:17:58.393Z,23.00
2019-01-20T06:20:28.013Z,21.70
2019-01-20T06:22:57.691Z,22.17
2019-01-20T06:25:27.308Z,22.93
2019-01-20T06:27:56.965Z,23.67
2019-01-20T06:30:33.485Z,21.67
2019-01-20T06:33:03.123Z,21.63
2019-01-20T06:35:32.746Z,22.07
2019-01-20T06:38:02.382Z,21.87
2019-01-20T06:40:32.001Z,23.47
2019-01-20T06:43:02.524Z,24.43
2019-01-20T06:45:33.410Z,23.73
2019-01-20T06:48:03.029Z,24.13
2019-01-20T06:50:32.729Z,22.47
2019-01-20T06:53:02.359Z,22.93
2019-01-20T06:55:32.058Z,23.83
2019-01-20T06:58:01.677Z,22.50
2019-01-20T07:00:31.388Z,23.47
2019-01-20T07:03:01.109Z,22.87
2019-01-20T07:05:30.894Z,22.30
2019-01-20T07:08:00.888Z,23.37
2019-01-20T07:10:30.523Z,22.00
2019-01-20T07:13:00.506Z,23.27
2019-01-20T07:15:30.129Z,29.63
2019-01-20T07:17:59.848Z,25.07
2019-01-20T07:20:29.532Z,24.63
2019-01-20T07:22:59.252Z,22.67
2019-01-20T07:25:28.949Z,22.13
2019-01-20T07:27:58.833Z,23.07
2019-01-20T07:30:28.802Z,22.37
2019-01-20T07:32:58.509Z,22.70
2019-01-20T07:35:28.277Z,22.60
2019-01-20T07:37:58.450Z,23.03
2019-01-20T07:40:28.073Z,22.10
2019-01-20T07:42:57.765Z,22.80
2019-01-20T07:45:27.713Z,23.83
2019-01-20T07:47:57.324Z,24.53
2019-01-20T07:50:27.690Z,24.53
2019-01-20T07:52:57.391Z,25.43
2019-01-20T07:55:27.182Z,24.03
2019-01-20T07:57:56.817Z,23.47
2019-01-20T08:00:26.816Z,21.40
2019-01-20T08:02:56.459Z,21.73
2019-01-20T08:05:26.078Z,21.13
2019-01-20T08:07:56.080Z,20.87
2019-01-20T08:10:29.720Z,19.30
2019-01-20T08:12:59.690Z,19.17
2019-01-20T08:15:29.300Z,19.03
2019-01-20T08:17:58.938Z,18.90
2019-01-20T08:20:28.634Z,19.97
2019-01-20T08:22:58.261Z,18.60
2019-01-20T08:25:28.171Z,20.00
2019-01-20T08:27:58.109Z,20.47
2019-01-20T08:30:28.138Z,20.20
2019-01-20T08:32:58.053Z,21.67
2019-01-20T08:35:27.680Z,20.87
2019-01-20T08:37:57.417Z,20.93
2019-01-20T08:40:29.310Z,20.53
2019-01-20T08:42:58.978Z,21.30
2019-01-20T08:45:56.396Z,20.90
2019-01-20T08:48:26.046Z,20.50
2019-01-20T08:50:56.058Z,22.10
2019-01-20T08:53:25.767Z,19.87
2019-01-20T08:55:55.438Z,20.07
2019-01-20T08:58:25.061Z,19.97
2019-01-20T09:00:54.760Z,21.10
2019-01-20T09:03:24.761Z,20.43
2019-01-20T09:05:54.397Z,20.57
2019-01-20T09:08:24.108Z,19.30
2019-01-20T09:10:53.985Z,19.53
2019-01-20T09:13:23.931Z,21.87
2019-01-20T09:15:53.633Z,20.47
2019-01-20T09:18:23.489Z,18.03
2019-01-20T09:20:53.110Z,19.23
2019-01-20T09:23:22.758Z,19.63
2019-01-20T09:25:52.372Z,19.17
2019-01-20T09:28:22.382Z,18.53
2019-01-20T09:30:52.842Z,18.07
2019-01-20T09:33:24.741Z,18.83
2019-01-20T09:35:53.856Z,19.63
2019-01-20T09:38:23.489Z,19.97
2019-01-20T09:40:53.118Z,18.73
2019-01-20T09:43:22.738Z,19.23
2019-01-20T09:45:53.481Z,17.87
2019-01-20T09:48:23.281Z,16.77
2019-01-20T09:50:52.897Z,16.30
2019-01-20T09:53:22.606Z,17.60
2019-01-20T09:55:52.304Z,16.33
2019-01-20T09:58:22.017Z,17.83
2019-01-20T10:00:51.878Z,17.47
2019-01-20T10:03:21.848Z,17.47
2019-01-20T10:05:51.721Z,17.47
2019-01-20T10:08:21.337Z,17.30
2019-01-20T10:10:50.970Z,17.17
2019-01-20T10:13:20.588Z,18.70
2019-01-20T10:15:52.399Z,18.03
2019-01-20T10:18:21.648Z,17.10
2019-01-20T10:20:51.281Z,17.87
2019-01-20T10:23:20.905Z,18.83
2019-01-20T10:25:50.796Z,29.03
2019-01-20T10:28:23.168Z,24.73
2019-01-20T10:30:52.945Z,16.90
2019-01-20T10:33:22.567Z,18.03
2019-01-20T10:36:02.569Z,16.00
2019-01-20T10:38:37.304Z,17.00
2019-01-20T10:41:05.257Z,18.07
2019-01-20T10:43:34.887Z,17.03
2019-01-20T10:46:04.758Z,18.63
2019-01-20T10:48:34.739Z,16.80
2019-01-20T10:51:04.775Z,16.70
2019-01-20T10:53:34.480Z,17.30
2019-01-20T10:56:04.812Z,17.47
2019-01-20T10:58:34.547Z,16.83
2019-01-20T11:01:04.356Z,16.57
2019-01-20T11:03:33.980Z,17.50
2019-01-20T11:06:03.950Z,17.30
2019-01-20T11:08:33.580Z,14.90
2019-01-20T11:11:03.269Z,15.00
2019-01-20T11:13:32.973Z,15.03
2019-01-20T11:16:02.608Z,15.90
2019-01-20T11:18:32.226Z,16.43
2019-01-20T11:21:01.836Z,20.13
2019-01-20T11:23:31.969Z,17.10
2019-01-20T11:26:01.886Z,18.90
2019-01-20T11:28:31.550Z,17.90
2019-01-20T11:31:01.177Z,17.57
2019-01-20T11:33:30.806Z,18.13
2019-01-20T11:36:00.427Z,17.60
2019-01-20T11:38:30.407Z,17.03
2019-01-20T11:41:00.950Z,17.87
2019-01-20T11:43:30.672Z,18.37
2019-01-20T11:46:00.290Z,17.67
2019-01-20T11:48:29.984Z,17.57
2019-01-20T11:50:59.604Z,18.07
2019-01-20T11:53:29.259Z,17.93
2019-01-20T11:55:58.870Z,17.47
2019-01-20T11:58:28.836Z,18.30
2019-01-20T12:00:58.761Z,16.60
2019-01-20T12:03:28.457Z,19.30
2019-01-20T12:05:58.089Z,17.30
2019-01-20T12:08:30.712Z,18.90
2019-01-20T12:10:59.576Z,19.47
2019-01-20T12:13:29.597Z,18.57
2019-01-20T12:15:59.265Z,19.73
2019-01-20T12:18:28.933Z,20.07
2019-01-20T12:20:58.628Z,20.33
2019-01-20T12:23:28.354Z,20.63
2019-01-20T12:25:57.979Z,20.37
2019-01-20T12:28:27.596Z,21.67
2019-01-20T12:30:57.245Z,27.83
2019-01-20T12:33:26.954Z,21.10
2019-01-20T12:35:56.682Z,21.03
2019-01-20T12:38:26.720Z,17.13
2019-01-20T12:40:56.412Z,18.87
2019-01-20T12:43:26.038Z,19.47
2019-01-20T12:45:55.661Z,19.47
2019-01-20T12:48:25.353Z,20.43
2019-01-20T12:50:55.240Z,20.70
2019-01-20T12:53:24.854Z,20.50
2019-01-20T12:55:54.483Z,19.63
2019-01-20T12:58:24.472Z,21.37
2019-01-20T13:00:54.178Z,19.53
2019-01-20T13:03:23.808Z,20.73
2019-01-20T13:05:53.725Z,20.73
2019-01-20T13:08:23.330Z,20.20
2019-01-20T13:10:52.972Z,20.63
2019-01-20T13:13:22.668Z,21.23
2019-01-20T13:15:52.287Z,21.07
2019-01-20T13:18:21.984Z,21.13
2019-01-20T13:20:51.657Z,21.23
2019-01-20T13:23:21.272Z,22.10
2019-01-20T13:25:50.910Z,21.90
2019-01-20T13:28:20.519Z,21.93
2019-01-20T13:30:50.192Z,21.57
2019-01-20T13:33:19.819Z,22.13
2019-01-20T13:35:49.509Z,22.93
2019-01-20T13:38:21.206Z,22.67
2019-01-20T13:41:03.252Z,22.47
2019-01-20T13:43:33.739Z,23.33
2019-01-20T13:46:03.680Z,22.30
2019-01-20T13:48:33.348Z,22.67
2019-01-20T13:51:03.042Z,22.23
2019-01-20T13:53:32.686Z,22.97
2019-01-20T13:56:02.393Z,21.80
2019-01-20T13:58:32.081Z,21.30
2019-01-20T14:01:01.766Z,20.57
2019-01-20T14:03:31.402Z,21.40
2019-01-20T14:06:01.076Z,20.50
2019-01-20T14:08:31.030Z,20.67
2019-01-20T14:11:00.639Z,20.97
2019-01-20T14:13:30.261Z,21.40
2019-01-20T14:15:59.877Z,23.03
2019-01-20T14:18:29.505Z,20.60
2019-01-20T14:20:59.438Z,21.00
2019-01-20T14:23:29.067Z,19.73
2019-01-20T14:25:58.687Z,20.87
2019-01-20T14:28:28.334Z,19.63
2019-01-20T14:30:58.259Z,19.80
2019-01-20T14:33:27.952Z,19.07
2019-01-20T14:35:57.657Z,20.73
2019-01-20T14:38:27.294Z,21.33
2019-01-20T14:40:56.920Z,19.77
2019-01-20T14:43:26.548Z,24.97
2019-01-20T14:45:56.193Z,28.27
2019-01-20T14:48:26.378Z,23.47
2019-01-20T14:50:56.077Z,21.40
2019-01-20T14:53:25.762Z,20.07
2019-01-20T14:55:56.464Z,20.90
2019-01-20T14:58:26.202Z,19.53
2019-01-20T15:00:56.015Z,20.60
2019-01-20T15:03:25.734Z,21.80
2019-01-20T15:05:55.364Z,20.50
2019-01-20T15:08:24.985Z,21.90
2019-01-20T15:10:54.623Z,21.30
2019-01-20T15:13:24.632Z,21.30
2019-01-20T15:15:54.377Z,23.97
2019-01-20T15:18:24.005Z,22.33
2019-01-20T15:20:53.774Z,20.67
2019-01-20T15:23:23.508Z,20.70
2019-01-20T15:25:54.114Z,22.53
2019-01-20T15:28:23.732Z,24.57
2019-01-20T15:30:53.551Z,23.60
2019-01-20T15:33:23.155Z,21.33
2019-01-20T15:35:53.104Z,23.17
2019-01-20T15:38:22.797Z,23.13
2019-01-20T15:40:52.748Z,24.13
2019-01-20T15:43:22.364Z,24.87
2019-01-20T15:45:52.012Z,24.50
2019-01-20T15:48:21.632Z,24.23
2019-01-20T15:50:51.502Z,24.93
2019-01-20T15:53:21.120Z,25.60
2019-01-20T15:55:50.748Z,25.10
2019-01-20T15:58:20.372Z,26.07
2019-01-20T16:00:50.053Z,24.50
2019-01-20T16:03:19.914Z,25.23
2019-01-20T16:05:49.552Z,26.60
2019-01-20T16:08:19.257Z,29.47
2019-01-20T16:10:48.876Z,24.93
2019-01-20T16:13:18.537Z,25.23
2019-01-20T16:15:48.214Z,24.40
2019-01-20T16:18:17.908Z,22.57
2019-01-20T16:20:47.603Z,22.03
2019-01-20T16:23:17.225Z,24.20
2019-01-20T16:25:46.853Z,24.60
2019-01-20T16:28:17.037Z,23.73
2019-01-20T16:30:47.029Z,22.63
2019-01-20T16:33:16.678Z,23.00
2019-01-20T16:35:46.460Z,24.23
2019-01-20T16:38:16.393Z,23.57
2019-01-20T16:40:46.268Z,21.97
2019-01-20T16:43:15.892Z,22.57
2019-01-20T16:45:47.393Z,23.50
2019-01-20T16:48:17.013Z,22.67
2019-01-20T16:50:46.936Z,23.70
2019-01-20T16:53:16.652Z,22.93
2019-01-20T16:55:46.445Z,21.37
2019-01-20T16:58:16.134Z,23.20
2019-01-20T17:00:46.834Z,22.83
2019-01-20T17:03:16.893Z,22.90
2019-01-20T17:05:46.509Z,22.83
2019-01-20T17:08:16.252Z,22.70
2019-01-20T17:10:46.018Z,21.60
2019-01-20T17:13:15.653Z,21.27
2019-01-20T17:15:46.352Z,21.97
2019-01-20T17:18:16.622Z,22.10
2019-01-20T17:20:46.356Z,21.27
2019-01-20T17:23:16.256Z,21.50
2019-01-20T17:25:45.976Z,21.53
2019-01-20T17:28:15.945Z,20.57
2019-01-20T17:30:46.163Z,19.83
2019-01-20T17:33:16.076Z,21.80
2019-01-20T17:35:46.086Z,19.37
2019-01-20T17:38:15.789Z,20.40
2019-01-20T17:40:46.237Z,21.07
2019-01-20T17:43:15.951Z,20.50
2019-01-20T17:45:48.469Z,20.63
2019-01-20T17:48:17.361Z,21.40
2019-01-20T17:50:47.146Z,22.07
2019-01-20T17:53:16.851Z,24.30
2019-01-20T17:55:46.494Z,24.63
2019-01-20T17:58:16.393Z,21.40
2019-01-20T18:00:55.706Z,22.23
2019-01-20T18:03:25.624Z,38.00
2019-01-20T18:05:55.381Z,22.07
2019-01-20T18:08:25.004Z,21.00
2019-01-20T18:10:55.305Z,21.70
2019-01-20T18:13:25.001Z,23.27
2019-01-20T18:15:54.994Z,22.93
2019-01-20T18:18:25.857Z,23.33
2019-01-20T18:20:55.473Z,22.87
2019-01-20T18:23:26.428Z,15.80
2019-01-20T18:25:56.292Z,23.43
2019-01-20T18:28:26.016Z,21.87
2019-01-20T18:30:56.625Z,21.50
2019-01-20T18:33:26.313Z,23.13
2019-01-20T18:35:55.945Z,21.63
2019-01-20T18:38:25.560Z,21.43
2019-01-20T18:40:55.549Z,20.87
2019-01-20T18:43:25.174Z,21.23
2019-01-20T18:46:01.388Z,20.47
2019-01-20T18:48:26.532Z,21.37
2019-01-20T18:50:56.278Z,20.90
2019-01-20T18:53:26.873Z,23.03
2019-01-20T18:55:56.508Z,23.60
2019-01-20T18:58:26.430Z,23.23
2019-01-20T19:00:56.059Z,27.47
2019-01-20T19:03:25.684Z,24.93
2019-01-20T19:05:55.298Z,24.10
2019-01-20T19:08:24.921Z,23.17
2019-01-20T19:10:54.857Z,22.97
2019-01-20T19:13:24.621Z,25.03
2019-01-20T19:15:54.409Z,21.17
2019-01-20T19:18:24.113Z,21.23
2019-01-20T19:20:53.739Z,20.13
2019-01-20T19:23:23.636Z,21.13
2019-01-20T19:25:54.703Z,20.20
2019-01-20T19:28:24.685Z,21.30
2019-01-20T19:30:54.440Z,20.17
2019-01-20T19:33:24.384Z,20.97
2019-01-20T19:35:54.668Z,21.00
2019-01-20T19:38:24.311Z,20.27
2019-01-20T19:40:54.032Z,20.70
2019-01-20T19:43:23.677Z,19.60
2019-01-20T19:45:53.330Z,22.70
2019-01-20T19:48:22.961Z,20.27
2019-01-20T19:50:52.822Z,23.00
2019-01-20T19:53:22.462Z,21.27
2019-01-20T19:55:52.105Z,22.60
2019-01-20T19:58:21.731Z,22.87
2019-01-20T20:00:51.358Z,24.20
2019-01-20T20:03:21.333Z,24.53
2019-01-20T20:05:51.306Z,23.27
2019-01-20T20:08:20.928Z,21.73
2019-01-20T20:10:50.549Z,22.87
2019-01-20T20:13:20.177Z,22.30
2019-01-20T20:15:49.788Z,22.77
2019-01-20T20:18:19.430Z,22.43
2019-01-20T20:20:49.056Z,24.57
2019-01-20T20:23:19.036Z,24.17
2019-01-20T20:25:48.658Z,22.03
2019-01-20T20:28:18.298Z,27.07
2019-01-20T20:30:47.938Z,59.60
2019-01-20T20:33:17.875Z,23.00
2019-01-20T20:35:47.562Z,22.53
2019-01-20T20:38:17.265Z,21.17
2019-01-20T20:40:46.955Z,21.03
2019-01-20T20:43:16.584Z,21.87
2019-01-20T20:45:46.361Z,21.50
2019-01-20T20:48:16.060Z,22.33
2019-01-20T20:50:45.788Z,21.70
2019-01-20T20:53:15.421Z,20.37
2019-01-20T20:55:45.045Z,22.37
2019-01-20T20:58:14.954Z,25.73
2019-01-20T21:00:47.259Z,21.80
2019-01-20T21:03:22.497Z,21.23
2019-01-20T21:05:52.185Z,20.47
2019-01-20T21:08:23.178Z,24.83
2019-01-20T21:10:53.773Z,25.53
2019-01-20T21:13:23.409Z,22.10
2019-01-20T21:15:53.035Z,21.23
2019-01-20T21:18:22.720Z,20.73
2019-01-20T21:20:52.822Z,21.40
2019-01-20T21:23:22.641Z,22.70
2019-01-20T21:25:52.252Z,22.17
2019-01-20T21:28:22.077Z,22.57
2019-01-20T21:30:51.814Z,21.93
2019-01-20T21:33:21.443Z,24.40
2019-01-20T21:35:51.337Z,21.37
2019-01-20T21:38:20.961Z,22.83
2019-01-20T21:40:50.669Z,22.73
2019-01-20T21:43:20.284Z,22.53
2019-01-20T21:45:49.978Z,20.70
2019-01-20T21:48:19.630Z,21.37
2019-01-20T21:50:50.253Z,22.10
2019-01-20T21:53:19.881Z,21.77
2019-01-20T21:55:49.544Z,23.17
2019-01-20T21:58:19.168Z,21.97
2019-01-20T22:00:48.874Z,22.60
2019-01-20T22:03:18.491Z,22.10
2019-01-20T22:05:48.200Z,21.43
2019-01-20T22:08:17.872Z,23.03
2019-01-20T22:10:47.505Z,21.23
2019-01-20T22:13:17.191Z,21.07
2019-01-20T22:15:46.838Z,21.47
2019-01-20T22:18:16.657Z,21.50
2019-01-20T22:20:46.289Z,21.30
2019-01-20T22:23:15.981Z,20.47
2019-01-20T22:25:45.661Z,21.50
2019-01-20T22:28:15.282Z,22.03
2019-01-20T22:30:44.920Z,22.37
2019-01-20T22:33:14.558Z,21.87
2019-01-20T22:35:44.201Z,20.90
2019-01-20T22:38:13.825Z,21.20
2019-01-20T22:40:43.811Z,20.67
2019-01-20T22:43:13.439Z,21.57
2019-01-20T22:45:43.061Z,22.20
2019-01-20T22:48:12.695Z,21.60
2019-01-20T22:50:42.312Z,22.10
2019-01-20T22:53:11.945Z,21.20
2019-01-20T22:55:41.570Z,21.20
2019-01-20T22:58:11.202Z,22.03
2019-01-20T23:00:49.617Z,20.97
2019-01-20T23:03:19.797Z,21.50
2019-01-20T23:05:54.480Z,21.37
2019-01-20T23:08:24.203Z,20.77
2019-01-20T23:10:54.000Z,22.60
2019-01-20T23:13:23.706Z,22.77
2019-01-20T23:15:53.337Z,22.90
2019-01-20T23:18:22.964Z,21.47
2019-01-20T23:20:52.798Z,21.50
2019-01-20T23:23:22.424Z,22.40
2019-01-20T23:25:52.748Z,23.17
2019-01-20T23:28:22.377Z,24.33
2019-01-20T23:30:52.077Z,23.23
2019-01-20T23:33:21.766Z,23.07
2019-01-20T23:35:51.385Z,22.83
2019-01-20T23:38:21.016Z,24.47
2019-01-20T23:40:50.707Z,24.57
2019-01-20T23:43:20.328Z,26.77
2019-01-20T23:45:50.265Z,23.47
2019-01-20T23:48:19.903Z,21.03
2019-01-20T23:50:49.594Z,24.43
2019-01-20T23:53:19.297Z,23.57
2019-01-20T23:55:48.909Z,23.43
2019-01-20T23:58:18.620Z,24.47
